Time;durP1;ratioP1;P1;durP2;ratioP2;P2;SDS_P1;SDS_P2;PMS_P1;PMS_P2;Temp;Humidity;BMP_temperature;BMP_pressure;BME280_temperature;BME280_humidity;BME280_pressure;Samples;Min_cycle;Max_cycle;Signal;HPM_P1;HPM_P2
2022/10/24 00:00:46;;;;;;;;;;;22.90;45.50;;;;;;474512;251;1350;-54
2022/10/24 00:02:48;;;;;;;;;;;22.90;45.50;;;;;;474554;251;2169;-53
2022/10/24 00:04:49;;;;;;;;;;;22.90;45.50;;;;;;474492;251;1234;-53
2022/10/24 00:06:50;;;;;;;;;;;22.90;45.50;;;;;;474506;251;1352;-53
2022/10/24 00:08:52;;;;;;;;;;;22.90;45.50;;;;;;474629;251;1622;-54
2022/10/24 00:10:53;;;;;;;;;;;22.80;45.50;;;;;;474668;251;1231;-53
2022/10/24 00:12:54;;;;;;;;;;;22.80;45.60;;;;;;474878;251;1221;-53
2022/10/24 00:14:56;;;;;;;;;;;22.90;45.70;;;;;;474851;251;1633;-53
2022/10/24 00:16:57;;;;;;;;;;;22.90;45.70;;;;;;474737;251;1248;-53
2022/10/24 00:18:58;;;;;;;;;;;22.90;45.70;;;;;;474510;251;1527;-53
2022/10/24 00:21:00;;;;;;;;;;;22.90;45.70;;;;;;474563;251;1320;-54
2022/10/24 00:23:01;;;;;;;;;;;22.90;45.70;;;;;;474544;251;2205;-53
2022/10/24 00:25:02;;;;;;;;;;;22.90;45.70;;;;;;474670;251;1298;-54
2022/10/24 00:27:04;;;;;;;;;;;22.90;45.70;;;;;;474571;251;1247;-54
2022/10/24 00:29:05;;;;;;;;;;;22.90;45.70;;;;;;474892;251;1233;-53
2022/10/24 00:31:06;;;;;;;;;;;22.90;45.70;;;;;;474715;251;1319;-53
2022/10/24 00:33:07;;;;;;;;;;;22.90;45.70;;;;;;474526;251;1319;-53
2022/10/24 00:35:09;;;;;;;;;;;22.90;45.80;;;;;;474917;251;1492;-53
2022/10/24 00:37:10;;;;;;;;;;;22.90;45.70;;;;;;474662;251;1395;-53
2022/10/24 00:39:12;;;;;;;;;;;22.90;45.80;;;;;;474680;251;1447;-53
2022/10/24 00:41:13;;;;;;;;;;;22.90;45.80;;;;;;475009;251;1305;-54
2022/10/24 00:43:14;;;;;;;;;;;22.90;45.80;;;;;;474908;251;2169;-53
2022/10/24 00:45:15;;;;;;;;;;;22.80;45.80;;;;;;475007;251;1372;-54
2022/10/24 00:47:17;;;;;;;;;;;22.90;45.80;;;;;;474875;251;1316;-54
2022/10/24 00:49:18;;;;;;;;;;;22.90;45.90;;;;;;474991;251;1166;-53
2022/10/24 00:51:21;;;;;;;;;;;22.90;45.90;;;;;;474565;251;1199;-53
2022/10/24 00:53:22;;;;;;;;;;;22.90;45.90;;;;;;474603;251;1341;-53
2022/10/24 00:55:23;;;;;;;;;;;22.80;45.90;;;;;;474982;251;1170;-53
2022/10/24 00:57:25;;;;;;;;;;;22.80;45.90;;;;;;474798;251;1336;-53
2022/10/24 00:59:26;;;;;;;;;;;22.90;46.00;;;;;;474837;251;1198;-52
2022/10/24 01:01:28;;;;;;;;;;;22.80;45.90;;;;;;474684;251;1376;-53
2022/10/24 01:03:29;;;;;;;;;;;22.80;45.90;;;;;;474632;251;2150;-53
2022/10/24 01:05:30;;;;;;;;;;;22.80;45.90;;;;;;474701;251;1076;-53
2022/10/24 01:07:31;;;;;;;;;;;22.80;46.00;;;;;;474558;251;1267;-53
2022/10/24 01:09:33;;;;;;;;;;;22.80;46.00;;;;;;474777;251;1225;-53
2022/10/24 01:11:34;;;;;;;;;;;22.80;46.00;;;;;;474581;251;1244;-54
2022/10/24 01:13:35;;;;;;;;;;;22.80;46.00;;;;;;474722;251;1184;-53
2022/10/24 01:15:37;;;;;;;;;;;22.80;46.00;;;;;;474807;251;1360;-53
2022/10/24 01:17:38;;;;;;;;;;;22.80;46.00;;;;;;474876;251;1234;-53
2022/10/24 01:19:39;;;;;;;;;;;22.80;46.00;;;;;;474824;251;1178;-53
2022/10/24 01:21:41;;;;;;;;;;;22.80;46.00;;;;;;474528;251;1277;-53
2022/10/24 01:23:42;;;;;;;;;;;22.90;46.00;;;;;;474937;251;2213;-54
2022/10/24 01:25:43;;;;;;;;;;;22.90;46.00;;;;;;474711;251;1197;-54
2022/10/24 01:27:45;;;;;;;;;;;22.90;46.10;;;;;;474827;251;1198;-53
2022/10/24 01:29:46;;;;;;;;;;;22.90;46.10;;;;;;474993;251;1245;-54
2022/10/24 01:31:48;;;;;;;;;;;22.80;46.10;;;;;;474989;251;1172;-53
2022/10/24 01:33:49;;;;;;;;;;;22.80;46.10;;;;;;474589;251;1191;-53
2022/10/24 01:35:50;;;;;;;;;;;22.80;46.10;;;;;;474566;251;1289;-53
2022/10/24 01:37:52;;;;;;;;;;;22.80;46.10;;;;;;474667;251;1242;-53
2022/10/24 01:39:53;;;;;;;;;;;22.80;46.10;;;;;;474613;251;1167;-53
2022/10/24 01:41:55;;;;;;;;;;;22.80;46.10;;;;;;474851;251;1210;-53
2022/10/24 01:43:56;;;;;;;;;;;22.80;46.10;;;;;;474910;251;2168;-53
2022/10/24 01:45:57;;;;;;;;;;;22.80;46.10;;;;;;475034;251;1255;-53
2022/10/24 01:47:59;;;;;;;;;;;22.80;46.10;;;;;;474841;251;1214;-53
2022/10/24 01:50:00;;;;;;;;;;;22.80;46.10;;;;;;474641;251;1257;-53
2022/10/24 01:52:01;;;;;;;;;;;22.80;46.10;;;;;;474991;251;1188;-53
2022/10/24 01:54:03;;;;;;;;;;;22.90;46.20;;;;;;475005;251;1186;-53
2022/10/24 01:56:05;;;;;;;;;;;22.90;46.20;;;;;;474614;251;1163;-53
2022/10/24 01:58:06;;;;;;;;;;;22.80;46.20;;;;;;474846;251;2294;-53
2022/10/24 02:00:07;;;;;;;;;;;22.80;46.20;;;;;;474710;251;1222;-53
2022/10/24 02:02:09;;;;;;;;;;;22.80;46.20;;;;;;474615;251;1276;-54
2022/10/24 02:04:10;;;;;;;;;;;22.80;46.20;;;;;;474627;251;2262;-53
2022/10/24 02:06:11;;;;;;;;;;;22.80;46.20;;;;;;474780;251;1207;-53
2022/10/24 02:08:12;;;;;;;;;;;22.80;46.30;;;;;;474618;251;1252;-53
2022/10/24 02:10:14;;;;;;;;;;;22.80;46.30;;;;;;474758;251;1217;-54
2022/10/24 02:12:15;;;;;;;;;;;22.80;46.20;;;;;;474881;251;1217;-53
2022/10/24 02:14:16;;;;;;;;;;;22.80;46.20;;;;;;475048;251;1277;-53
2022/10/24 02:16:18;;;;;;;;;;;22.80;46.30;;;;;;474800;251;1260;-53
2022/10/24 02:18:19;;;;;;;;;;;22.80;46.30;;;;;;474634;251;1417;-53
2022/10/24 02:20:20;;;;;;;;;;;22.80;46.30;;;;;;474842;251;1433;-53
2022/10/24 02:22:22;;;;;;;;;;;22.80;46.30;;;;;;474656;251;1224;-53
2022/10/24 02:24:23;;;;;;;;;;;22.80;46.30;;;;;;474540;251;2244;-53
2022/10/24 02:26:25;;;;;;;;;;;22.80;46.30;;;;;;474811;251;1317;-53
2022/10/24 02:28:26;;;;;;;;;;;22.80;46.30;;;;;;474787;251;1211;-53
2022/10/24 02:30:27;;;;;;;;;;;22.80;46.30;;;;;;474558;251;1260;-53
2022/10/24 02:32:29;;;;;;;;;;;22.80;46.30;;;;;;474997;251;1229;-53
2022/10/24 02:34:30;;;;;;;;;;;22.80;46.30;;;;;;474833;251;1246;-53
2022/10/24 02:36:31;;;;;;;;;;;22.80;46.40;;;;;;474537;251;1326;-53
2022/10/24 02:38:33;;;;;;;;;;;22.80;46.30;;;;;;474959;251;1347;-53
2022/10/24 02:40:34;;;;;;;;;;;22.80;46.30;;;;;;474728;251;1355;-53
2022/10/24 02:42:35;;;;;;;;;;;22.80;46.30;;;;;;474641;251;1233;-53
2022/10/24 02:44:36;;;;;;;;;;;22.80;46.30;;;;;;474671;251;2169;-53
2022/10/24 02:46:38;;;;;;;;;;;22.80;46.30;;;;;;475043;251;1204;-53
2022/10/24 02:48:39;;;;;;;;;;;22.90;46.30;;;;;;475018;251;1152;-53
2022/10/24 02:50:41;;;;;;;;;;;22.80;46.30;;;;;;474584;251;1235;-54
2022/10/24 02:52:42;;;;;;;;;;;22.80;46.40;;;;;;474649;251;1199;-54
2022/10/24 02:54:44;;;;;;;;;;;22.80;46.30;;;;;;474608;251;1340;-54
2022/10/24 02:56:45;;;;;;;;;;;22.80;46.30;;;;;;474617;251;1190;-53
2022/10/24 02:58:46;;;;;;;;;;;22.80;46.40;;;;;;474612;251;1298;-54
2022/10/24 03:00:48;;;;;;;;;;;22.90;46.40;;;;;;474720;251;1359;-53
2022/10/24 03:02:49;;;;;;;;;;;22.80;46.40;;;;;;474605;251;1197;-53
2022/10/24 03:04:50;;;;;;;;;;;22.80;46.40;;;;;;474982;251;2172;-53
2022/10/24 03:06:52;;;;;;;;;;;22.80;46.40;;;;;;474542;251;1358;-53
2022/10/24 03:08:53;;;;;;;;;;;22.80;46.40;;;;;;474715;251;1368;-53
2022/10/24 03:10:55;;;;;;;;;;;22.80;46.40;;;;;;474531;251;1235;-53
2022/10/24 03:12:56;;;;;;;;;;;22.80;46.50;;;;;;474857;251;1265;-53
2022/10/24 03:14:57;;;;;;;;;;;22.80;46.50;;;;;;474563;251;1343;-53
2022/10/24 03:16:58;;;;;;;;;;;22.80;46.50;;;;;;474632;251;1176;-53
2022/10/24 03:19:00;;;;;;;;;;;22.80;46.50;;;;;;474597;251;1309;-54
2022/10/24 03:21:01;;;;;;;;;;;22.80;46.50;;;;;;474578;251;1543;-54
2022/10/24 03:23:02;;;;;;;;;;;22.80;46.50;;;;;;474911;251;1282;-53
2022/10/24 03:25:05;;;;;;;;;;;22.80;46.60;;;;;;474981;251;2178;-54
2022/10/24 03:27:05;;;;;;;;;;;22.80;46.50;;;;;;474523;251;2373;-53
2022/10/24 03:29:06;;;;;;;;;;;22.80;46.50;;;;;;474900;251;1232;-53
2022/10/24 03:31:08;;;;;;;;;;;22.80;46.50;;;;;;474580;251;1161;-53
2022/10/24 03:33:09;;;;;;;;;;;22.80;46.50;;;;;;474589;251;1329;-53
2022/10/24 03:35:10;;;;;;;;;;;22.80;46.60;;;;;;474577;251;1365;-53
2022/10/24 03:37:12;;;;;;;;;;;22.80;46.60;;;;;;474514;251;1328;-54
2022/10/24 03:39:13;;;;;;;;;;;22.80;46.60;;;;;;474762;251;1214;-53
2022/10/24 03:41:14;;;;;;;;;;;22.80;46.60;;;;;;474545;251;1280;-53
2022/10/24 03:43:16;;;;;;;;;;;22.80;46.60;;;;;;474604;251;1182;-53
2022/10/24 03:45:17;;;;;;;;;;;22.80;46.60;;;;;;474767;251;2122;-53
2022/10/24 03:47:19;;;;;;;;;;;22.80;46.60;;;;;;474569;251;1238;-54
2022/10/24 03:49:20;;;;;;;;;;;22.80;46.70;;;;;;474732;251;1175;-53
2022/10/24 03:51:21;;;;;;;;;;;22.80;46.60;;;;;;474553;251;1265;-53
2022/10/24 03:53:23;;;;;;;;;;;22.80;46.60;;;;;;474886;251;1300;-54
2022/10/24 03:55:24;;;;;;;;;;;22.80;46.60;;;;;;474998;251;1331;-53
2022/10/24 03:57:25;;;;;;;;;;;22.80;46.60;;;;;;474688;251;1194;-53
2022/10/24 03:59:27;;;;;;;;;;;22.80;46.60;;;;;;474568;251;1230;-53
2022/10/24 04:01:28;;;;;;;;;;;22.80;46.60;;;;;;474640;251;1263;-53
2022/10/24 04:03:29;;;;;;;;;;;22.80;46.70;;;;;;474838;251;1263;-53
2022/10/24 04:05:31;;;;;;;;;;;22.80;46.70;;;;;;474845;251;2157;-53
2022/10/24 04:07:32;;;;;;;;;;;22.80;46.70;;;;;;474842;251;1224;-54
2022/10/24 04:09:33;;;;;;;;;;;22.80;46.70;;;;;;474937;251;1198;-53
2022/10/24 04:11:35;;;;;;;;;;;22.80;46.60;;;;;;474754;251;1232;-53
2022/10/24 04:13:36;;;;;;;;;;;22.80;46.70;;;;;;474653;251;1244;-53
2022/10/24 04:15:37;;;;;;;;;;;22.80;46.70;;;;;;474475;251;1299;-53
2022/10/24 04:17:39;;;;;;;;;;;22.80;46.70;;;;;;474560;251;1179;-53
2022/10/24 04:19:40;;;;;;;;;;;22.80;46.60;;;;;;474796;251;1167;-53
2022/10/24 04:21:41;;;;;;;;;;;22.80;46.60;;;;;;474712;251;1215;-53
2022/10/24 04:23:43;;;;;;;;;;;22.80;46.70;;;;;;474553;251;1282;-53
2022/10/24 04:25:44;;;;;;;;;;;22.80;46.70;;;;;;474815;251;2153;-53
2022/10/24 04:27:45;;;;;;;;;;;22.80;46.80;;;;;;475004;251;1203;-53
2022/10/24 04:29:47;;;;;;;;;;;22.80;46.70;;;;;;474953;251;1180;-53
2022/10/24 04:31:48;;;;;;;;;;;22.80;46.70;;;;;;474699;251;1344;-54
2022/10/24 04:33:49;;;;;;;;;;;22.80;46.70;;;;;;474792;251;1292;-53
2022/10/24 04:35:50;;;;;;;;;;;22.80;46.70;;;;;;474983;251;1649;-53
2022/10/24 04:37:52;;;;;;;;;;;22.80;46.70;;;;;;474433;251;1249;-53
2022/10/24 04:39:54;;;;;;;;;;;22.80;46.70;;;;;;474566;251;1209;-53
2022/10/24 04:41:55;;;;;;;;;;;22.80;46.80;;;;;;474746;251;1218;-53
2022/10/24 04:43:56;;;;;;;;;;;22.80;46.80;;;;;;474564;251;1496;-53
2022/10/24 04:45:57;;;;;;;;;;;22.80;46.70;;;;;;474571;251;2181;-53
2022/10/24 04:47:59;;;;;;;;;;;22.80;46.80;;;;;;474589;251;1357;-54
2022/10/24 04:50:00;;;;;;;;;;;22.80;46.80;;;;;;474651;251;1280;-53
2022/10/24 04:52:01;;;;;;;;;;;22.80;46.80;;;;;;474768;251;1270;-53
2022/10/24 04:54:03;;;;;;;;;;;22.80;46.90;;;;;;474559;251;1200;-54
2022/10/24 04:56:04;;;;;;;;;;;22.80;46.80;;;;;;474656;251;1187;-53
2022/10/24 04:58:05;;;;;;;;;;;22.80;46.90;;;;;;474574;251;1282;-53
2022/10/24 05:00:07;;;;;;;;;;;22.80;46.80;;;;;;474871;251;1204;-53
2022/10/24 05:02:08;;;;;;;;;;;22.80;46.80;;;;;;474788;251;1064;-53
2022/10/24 05:04:09;;;;;;;;;;;22.80;46.80;;;;;;475009;251;2164;-53
2022/10/24 05:06:11;;;;;;;;;;;22.80;46.70;;;;;;474436;251;1223;-53
2022/10/24 05:08:12;;;;;;;;;;;22.80;46.80;;;;;;474509;251;1120;-53
2022/10/24 05:10:13;;;;;;;;;;;22.80;46.90;;;;;;474583;251;1124;-53
2022/10/24 05:12:14;;;;;;;;;;;22.80;46.90;;;;;;474405;251;1204;-53
2022/10/24 05:14:16;;;;;;;;;;;22.80;46.90;;;;;;474989;251;1190;-54
2022/10/24 05:16:17;;;;;;;;;;;22.80;46.90;;;;;;474551;251;1189;-54
2022/10/24 05:18:18;;;;;;;;;;;22.80;46.90;;;;;;474925;251;1237;-53
2022/10/24 05:20:20;;;;;;;;;;;22.80;47.00;;;;;;474653;251;1242;-54
2022/10/24 05:22:21;;;;;;;;;;;22.80;46.90;;;;;;474515;251;1238;-53
2022/10/24 05:24:22;;;;;;;;;;;22.80;47.00;;;;;;474577;251;2201;-52
2022/10/24 05:26:24;;;;;;;;;;;22.80;47.00;;;;;;474868;251;1221;-54
2022/10/24 05:28:25;;;;;;;;;;;22.80;47.00;;;;;;474545;251;1277;-53
2022/10/24 05:30:26;;;;;;;;;;;22.80;47.00;;;;;;474765;251;1338;-53
2022/10/24 05:32:28;;;;;;;;;;;22.80;47.00;;;;;;474375;251;1191;-53
2022/10/24 05:34:29;;;;;;;;;;;22.80;47.00;;;;;;474531;251;1260;-53
2022/10/24 05:36:30;;;;;;;;;;;22.80;47.00;;;;;;474622;251;1239;-53
2022/10/24 05:38:32;;;;;;;;;;;22.80;47.00;;;;;;474432;251;1249;-54
2022/10/24 05:40:33;;;;;;;;;;;22.80;47.00;;;;;;474767;251;1098;-53
2022/10/24 05:42:35;;;;;;;;;;;22.80;47.00;;;;;;474765;251;1277;-53
2022/10/24 05:44:36;;;;;;;;;;;22.80;47.00;;;;;;474427;251;2185;-54
2022/10/24 05:46:37;;;;;;;;;;;22.80;47.00;;;;;;474497;251;1235;-53
2022/10/24 05:48:39;;;;;;;;;;;22.80;47.00;;;;;;474590;251;1318;-54
2022/10/24 05:50:40;;;;;;;;;;;22.80;47.00;;;;;;474635;251;1210;-53
2022/10/24 05:52:41;;;;;;;;;;;22.80;47.00;;;;;;474489;251;1248;-54
2022/10/24 05:54:43;;;;;;;;;;;22.80;47.00;;;;;;474693;251;1205;-53
2022/10/24 05:56:44;;;;;;;;;;;22.80;47.00;;;;;;474880;251;1203;-53
2022/10/24 05:58:45;;;;;;;;;;;22.80;47.00;;;;;;474468;251;1324;-53
2022/10/24 06:00:47;;;;;;;;;;;22.80;47.00;;;;;;474701;251;1561;-53
2022/10/24 06:02:48;;;;;;;;;;;22.80;46.80;;;;;;474683;251;1282;-53
2022/10/24 06:04:49;;;;;;;;;;;22.80;46.70;;;;;;474456;251;2197;-53
2022/10/24 06:06:51;;;;;;;;;;;22.80;46.60;;;;;;474556;251;1259;-54
2022/10/24 06:08:52;;;;;;;;;;;22.80;46.50;;;;;;474713;251;1272;-53
2022/10/24 06:10:53;;;;;;;;;;;22.80;46.40;;;;;;474288;251;1196;-54
2022/10/24 06:12:55;;;;;;;;;;;22.90;46.30;;;;;;474458;251;1303;-54
2022/10/24 06:14:56;;;;;;;;;;;22.90;46.30;;;;;;474456;251;1220;-54
2022/10/24 06:16:57;;;;;;;;;;;22.90;46.20;;;;;;474690;251;1234;-54
2022/10/24 06:18:59;;;;;;;;;;;22.90;46.20;;;;;;474428;251;1287;-54
2022/10/24 06:21:00;;;;;;;;;;;22.90;46.10;;;;;;474457;251;1255;-54
2022/10/24 06:23:01;;;;;;;;;;;22.90;46.20;;;;;;474405;251;1107;-53
2022/10/24 06:25:03;;;;;;;;;;;22.90;46.00;;;;;;474504;251;2186;-53
2022/10/24 06:27:04;;;;;;;;;;;22.90;46.00;;;;;;474403;251;1077;-53
2022/10/24 06:29:05;;;;;;;;;;;22.90;46.00;;;;;;474482;251;1189;-53
2022/10/24 06:31:07;;;;;;;;;;;22.90;46.00;;;;;;474526;251;1132;-53
2022/10/24 06:33:08;;;;;;;;;;;22.90;45.90;;;;;;474506;251;1196;-54
2022/10/24 06:35:12;;;;;;;;;;;22.90;45.90;;;;;;474422;251;1171;-53
2022/10/24 06:37:10;;;;;;;;;;;22.90;45.90;;;;;;474339;251;1696;-53
2022/10/24 06:39:12;;;;;;;;;;;22.90;45.80;;;;;;474538;251;1263;-53
2022/10/24 06:41:13;;;;;;;;;;;22.90;45.80;;;;;;474481;251;1243;-53
2022/10/24 06:43:15;;;;;;;;;;;22.90;45.70;;;;;;474491;251;1256;-53
2022/10/24 06:45:17;;;;;;;;;;;22.90;45.80;;;;;;474404;251;2201;-53
2022/10/24 06:47:17;;;;;;;;;;;22.90;45.70;;;;;;474572;251;1392;-53
2022/10/24 06:49:18;;;;;;;;;;;22.90;45.70;;;;;;474846;251;1188;-53
2022/10/24 06:51:20;;;;;;;;;;;22.90;45.70;;;;;;474625;251;1105;-53
2022/10/24 06:53:21;;;;;;;;;;;22.90;45.60;;;;;;474424;251;1238;-53
2022/10/24 06:55:23;;;;;;;;;;;22.90;45.50;;;;;;474712;251;1173;-54
2022/10/24 06:57:24;;;;;;;;;;;22.90;45.40;;;;;;474415;251;1182;-54
2022/10/24 06:59:25;;;;;;;;;;;22.90;45.40;;;;;;474526;251;1179;-53
2022/10/24 07:01:27;;;;;;;;;;;22.90;45.50;;;;;;474446;251;1217;-54
2022/10/24 07:03:28;;;;;;;;;;;22.90;45.50;;;;;;474498;251;1175;-53
2022/10/24 07:05:29;;;;;;;;;;;22.90;45.40;;;;;;474458;251;2205;-54
2022/10/24 07:07:31;;;;;;;;;;;23.00;45.50;;;;;;474436;251;1297;-53
2022/10/24 07:09:32;;;;;;;;;;;22.90;45.30;;;;;;474581;251;1192;-53
2022/10/24 07:11:33;;;;;;;;;;;23.00;45.40;;;;;;474485;251;1229;-53
2022/10/24 07:13:35;;;;;;;;;;;23.00;45.30;;;;;;474547;251;1333;-53
2022/10/24 07:15:36;;;;;;;;;;;23.00;45.20;;;;;;474436;251;1199;-53
2022/10/24 07:17:37;;;;;;;;;;;23.00;45.30;;;;;;474802;251;1199;-54
2022/10/24 07:19:39;;;;;;;;;;;23.00;45.20;;;;;;474452;251;1251;-53
2022/10/24 07:21:40;;;;;;;;;;;23.00;45.30;;;;;;474446;251;1288;-53
2022/10/24 07:23:41;;;;;;;;;;;23.00;45.30;;;;;;474496;251;1417;-53
2022/10/24 07:25:43;;;;;;;;;;;23.00;45.10;;;;;;474491;251;2158;-54
2022/10/24 07:27:44;;;;;;;;;;;23.00;45.20;;;;;;474938;251;1187;-53
2022/10/24 07:29:45;;;;;;;;;;;23.00;45.10;;;;;;474382;251;1275;-53
2022/10/24 07:31:47;;;;;;;;;;;23.00;45.10;;;;;;474606;251;1221;-54
2022/10/24 07:33:48;;;;;;;;;;;23.00;45.10;;;;;;474344;251;1231;-53
2022/10/24 07:35:50;;;;;;;;;;;23.00;45.10;;;;;;474297;251;1563;-53
2022/10/24 07:37:52;;;;;;;;;;;23.00;45.10;;;;;;474358;251;1272;-53
2022/10/24 07:39:52;;;;;;;;;;;23.00;45.00;;;;;;474460;251;2022;-53
2022/10/24 07:41:54;;;;;;;;;;;23.00;45.00;;;;;;474678;251;1209;-53
2022/10/24 07:43:55;;;;;;;;;;;23.00;45.00;;;;;;474518;251;1106;-53
2022/10/24 07:45:56;;;;;;;;;;;23.00;45.00;;;;;;474480;251;2169;-53
2022/10/24 07:47:58;;;;;;;;;;;23.10;44.90;;;;;;474433;251;1188;-53
2022/10/24 07:49:59;;;;;;;;;;;23.00;44.80;;;;;;474353;251;2363;-53
2022/10/24 07:52:00;;;;;;;;;;;23.10;45.10;;;;;;474566;251;1232;-53
2022/10/24 07:54:02;;;;;;;;;;;23.10;44.90;;;;;;474353;251;1253;-53
2022/10/24 07:56:05;;;;;;;;;;;23.00;44.90;;;;;;474411;251;1166;-53
2022/10/24 07:58:05;;;;;;;;;;;23.00;44.80;;;;;;474238;251;1505;-54
2022/10/24 08:00:06;;;;;;;;;;;23.10;45.00;;;;;;474207;251;1188;-53
2022/10/24 08:02:07;;;;;;;;;;;23.10;45.00;;;;;;474584;251;1226;-53
2022/10/24 08:04:09;;;;;;;;;;;23.00;45.00;;;;;;474380;251;1393;-53
2022/10/24 08:06:10;;;;;;;;;;;23.10;44.90;;;;;;474274;251;2161;-54
2022/10/24 08:08:11;;;;;;;;;;;23.00;44.90;;;;;;474373;251;1202;-54
2022/10/24 08:10:12;;;;;;;;;;;23.00;44.90;;;;;;474325;251;1235;-54
2022/10/24 08:12:14;;;;;;;;;;;23.10;45.00;;;;;;474450;251;1449;-54
2022/10/24 08:14:15;;;;;;;;;;;23.10;44.80;;;;;;474437;251;1222;-53
2022/10/24 08:16:16;;;;;;;;;;;23.00;44.60;;;;;;474513;251;1435;-53
2022/10/24 08:18:18;;;;;;;;;;;23.10;44.70;;;;;;474296;251;1292;-53
2022/10/24 08:20:19;;;;;;;;;;;23.10;44.80;;;;;;474244;251;1162;-53
2022/10/24 08:22:20;;;;;;;;;;;23.10;44.60;;;;;;474505;251;2236;-53
2022/10/24 08:24:22;;;;;;;;;;;23.10;44.90;;;;;;474330;251;1228;-53
2022/10/24 08:26:23;;;;;;;;;;;23.10;44.70;;;;;;474345;251;2212;-54
2022/10/24 08:28:24;;;;;;;;;;;23.10;44.60;;;;;;474212;251;1191;-53
2022/10/24 08:30:26;;;;;;;;;;;23.10;44.80;;;;;;474325;251;1195;-54
2022/10/24 08:32:27;;;;;;;;;;;23.10;44.70;;;;;;474353;251;1218;-53
2022/10/24 08:34:28;;;;;;;;;;;23.10;44.60;;;;;;474267;251;1314;-54
2022/10/24 08:36:30;;;;;;;;;;;23.10;44.70;;;;;;474146;251;1310;-53
2022/10/24 08:38:31;;;;;;;;;;;23.10;44.60;;;;;;474354;251;1212;-53
2022/10/24 08:40:32;;;;;;;;;;;23.10;44.60;;;;;;474228;251;1263;-54
2022/10/24 08:42:34;;;;;;;;;;;23.10;44.70;;;;;;474466;251;1800;-53
2022/10/24 08:44:35;;;;;;;;;;;23.10;44.70;;;;;;474262;251;1233;-54
2022/10/24 08:46:37;;;;;;;;;;;23.10;44.80;;;;;;474242;251;2145;-54
2022/10/24 08:48:38;;;;;;;;;;;23.10;44.60;;;;;;474347;251;1236;-53
2022/10/24 08:50:39;;;;;;;;;;;23.10;44.60;;;;;;474591;251;1168;-53
2022/10/24 08:52:41;;;;;;;;;;;23.00;44.70;;;;;;474289;251;1703;-54
2022/10/24 08:54:42;;;;;;;;;;;23.10;44.70;;;;;;474414;251;1328;-54
2022/10/24 08:56:44;;;;;;;;;;;23.10;44.60;;;;;;474611;251;1212;-53
2022/10/24 08:58:45;;;;;;;;;;;23.10;44.60;;;;;;474424;251;1218;-53
2022/10/24 09:00:46;;;;;;;;;;;23.10;44.70;;;;;;474284;251;1209;-54
2022/10/24 09:02:48;;;;;;;;;;;23.10;44.60;;;;;;474464;251;1421;-53
2022/10/24 09:04:49;;;;;;;;;;;23.10;44.60;;;;;;474388;251;1535;-53
2022/10/24 09:06:50;;;;;;;;;;;23.10;44.60;;;;;;474238;251;2162;-52
2022/10/24 09:08:52;;;;;;;;;;;23.00;44.70;;;;;;474282;251;1603;-53
2022/10/24 09:10:53;;;;;;;;;;;23.10;44.60;;;;;;474366;251;1296;-53
2022/10/24 09:12:55;;;;;;;;;;;23.10;44.40;;;;;;474546;251;1343;-53
2022/10/24 09:14:56;;;;;;;;;;;23.10;44.50;;;;;;474233;251;1223;-52
2022/10/24 09:16:57;;;;;;;;;;;23.10;44.50;;;;;;474413;251;1183;-53
2022/10/24 09:18:59;;;;;;;;;;;23.10;44.50;;;;;;474377;251;1139;-53
2022/10/24 09:21:00;;;;;;;;;;;23.10;44.50;;;;;;474264;251;1318;-53
2022/10/24 09:23:02;;;;;;;;;;;23.20;44.50;;;;;;474272;251;1161;-53
2022/10/24 09:25:03;;;;;;;;;;;23.10;44.60;;;;;;474329;251;2611;-53
2022/10/24 09:27:04;;;;;;;;;;;23.10;44.50;;;;;;474399;251;2209;-53
2022/10/24 09:29:06;;;;;;;;;;;23.10;44.40;;;;;;474281;251;1117;-53
2022/10/24 09:31:07;;;;;;;;;;;23.10;44.50;;;;;;474261;251;1201;-53
2022/10/24 09:33:11;;;;;;;;;;;23.10;44.50;;;;;;474451;251;1243;-52
2022/10/24 09:35:10;;;;;;;;;;;23.10;44.70;;;;;;474365;251;2503;-53
2022/10/24 09:37:11;;;;;;;;;;;23.10;44.50;;;;;;474212;251;1179;-53
2022/10/24 09:39:12;;;;;;;;;;;23.10;44.50;;;;;;474435;251;1236;-53
2022/10/24 09:41:14;;;;;;;;;;;23.10;44.60;;;;;;474311;251;1270;-53
2022/10/24 09:43:15;;;;;;;;;;;23.10;44.40;;;;;;474415;251;1167;-53
2022/10/24 09:45:16;;;;;;;;;;;23.10;44.30;;;;;;474417;251;1535;-52
2022/10/24 09:47:18;;;;;;;;;;;23.10;44.50;;;;;;474356;251;2217;-53
2022/10/24 09:49:21;;;;;;;;;;;23.10;44.40;;;;;;474419;251;1221;-53
2022/10/24 09:51:20;;;;;;;;;;;23.10;44.40;;;;;;474311;251;2125;-53
2022/10/24 09:53:22;;;;;;;;;;;23.10;44.30;;;;;;474323;251;1410;-53
2022/10/24 09:55:23;;;;;;;;;;;23.10;44.30;;;;;;474407;251;1261;-53
2022/10/24 09:57:25;;;;;;;;;;;23.20;44.50;;;;;;474432;251;1243;-53
2022/10/24 09:59:26;;;;;;;;;;;23.20;44.40;;;;;;474426;251;1339;-52
2022/10/24 10:01:27;;;;;;;;;;;23.20;44.40;;;;;;474436;251;1363;-53
2022/10/24 10:03:29;;;;;;;;;;;23.10;44.40;;;;;;474818;251;1203;-53
2022/10/24 10:05:30;;;;;;;;;;;23.20;44.40;;;;;;474469;251;1355;-53
2022/10/24 10:07:31;;;;;;;;;;;23.20;44.50;;;;;;474444;251;2213;-52
2022/10/24 10:09:33;;;;;;;;;;;23.20;44.60;;;;;;474513;251;1211;-53
2022/10/24 10:11:34;;;;;;;;;;;23.20;44.30;;;;;;474516;251;2099;-53
2022/10/24 10:13:37;;;;;;;;;;;23.20;44.30;;;;;;474655;251;1356;-53
2022/10/24 10:15:37;;;;;;;;;;;23.20;44.40;;;;;;474590;251;2059;-53
2022/10/24 10:17:39;;;;;;;;;;;23.20;44.40;;;;;;474511;251;1290;-53
2022/10/24 10:19:40;;;;;;;;;;;23.20;44.40;;;;;;474646;251;1287;-53
2022/10/24 10:21:41;;;;;;;;;;;23.20;44.30;;;;;;474473;251;1209;-53
2022/10/24 10:23:42;;;;;;;;;;;23.20;44.40;;;;;;474515;251;1248;-52
2022/10/24 10:25:44;;;;;;;;;;;23.20;44.40;;;;;;474503;251;1547;-52
2022/10/24 10:27:45;;;;;;;;;;;23.20;44.40;;;;;;474836;251;2196;-53
2022/10/24 10:29:46;;;;;;;;;;;23.20;44.40;;;;;;474434;251;1249;-52
2022/10/24 10:31:48;;;;;;;;;;;23.20;44.50;;;;;;474459;251;1218;-53
2022/10/24 10:33:49;;;;;;;;;;;23.20;44.30;;;;;;474567;251;1267;-53
2022/10/24 10:35:50;;;;;;;;;;;23.20;44.30;;;;;;474494;251;1192;-53
2022/10/24 10:37:52;;;;;;;;;;;23.20;44.30;;;;;;474420;251;1189;-52
2022/10/24 10:39:53;;;;;;;;;;;23.20;44.30;;;;;;474318;251;1264;-53
2022/10/24 10:41:54;;;;;;;;;;;23.20;44.30;;;;;;474469;251;1262;-53
2022/10/24 10:43:56;;;;;;;;;;;23.20;44.20;;;;;;474332;251;1318;-52
2022/10/24 10:45:57;;;;;;;;;;;23.20;44.40;;;;;;474347;251;1295;-53
2022/10/24 10:47:59;;;;;;;;;;;23.20;44.30;;;;;;474548;251;2196;-53
2022/10/24 10:50:00;;;;;;;;;;;23.20;44.20;;;;;;474366;251;1271;-53
2022/10/24 10:52:01;;;;;;;;;;;23.20;44.40;;;;;;474452;251;1238;-53
2022/10/24 10:54:03;;;;;;;;;;;23.20;44.30;;;;;;474610;251;1274;-53
2022/10/24 10:56:04;;;;;;;;;;;23.20;44.30;;;;;;474410;251;1321;-53
2022/10/24 10:58:05;;;;;;;;;;;23.20;44.40;;;;;;474504;251;1184;-53
2022/10/24 11:00:07;;;;;;;;;;;23.20;44.20;;;;;;474403;251;1208;-53
2022/10/24 11:02:08;;;;;;;;;;;23.20;44.40;;;;;;474433;251;1293;-52
2022/10/24 11:04:09;;;;;;;;;;;23.20;44.20;;;;;;474401;251;1162;-53
2022/10/24 11:06:11;;;;;;;;;;;23.20;44.20;;;;;;474420;251;1180;-53
2022/10/24 11:08:12;;;;;;;;;;;23.20;44.30;;;;;;474375;251;2204;-53
2022/10/24 11:10:13;;;;;;;;;;;23.20;44.10;;;;;;474322;251;1263;-52
2022/10/24 11:12:15;;;;;;;;;;;23.20;44.20;;;;;;474425;251;1698;-52
2022/10/24 11:14:16;;;;;;;;;;;23.20;44.20;;;;;;474177;251;1215;-53
2022/10/24 11:16:17;;;;;;;;;;;23.20;44.30;;;;;;474220;251;1679;-53
2022/10/24 11:18:19;;;;;;;;;;;23.20;44.20;;;;;;474266;251;1204;-53
2022/10/24 11:20:20;;;;;;;;;;;23.30;44.20;;;;;;474400;251;1505;-53
2022/10/24 11:22:21;;;;;;;;;;;23.20;44.20;;;;;;474224;251;1238;-53
2022/10/24 11:24:22;;;;;;;;;;;23.20;44.10;;;;;;474202;251;1316;-53
2022/10/24 11:26:25;;;;;;;;;;;23.20;44.30;;;;;;474339;251;2193;-53
2022/10/24 11:28:25;;;;;;;;;;;23.20;44.20;;;;;;474065;251;1610;-53
2022/10/24 11:30:26;;;;;;;;;;;23.20;44.20;;;;;;474477;251;1349;-53
2022/10/24 11:32:28;;;;;;;;;;;23.20;44.20;;;;;;474496;251;1230;-53
2022/10/24 11:34:31;;;;;;;;;;;23.20;44.10;;;;;;474459;251;1262;-53
2022/10/24 11:36:31;;;;;;;;;;;23.20;44.20;;;;;;474194;251;1690;-53
2022/10/24 11:38:32;;;;;;;;;;;23.20;44.10;;;;;;474401;251;1176;-53
2022/10/24 11:40:34;;;;;;;;;;;23.20;44.10;;;;;;474379;251;1278;-53
2022/10/24 11:42:35;;;;;;;;;;;23.20;44.10;;;;;;474241;251;1277;-52
2022/10/24 11:44:36;;;;;;;;;;;23.20;44.00;;;;;;474414;251;1259;-53
2022/10/24 11:46:38;;;;;;;;;;;23.20;44.10;;;;;;474515;251;2178;-53
2022/10/24 11:48:39;;;;;;;;;;;23.20;44.10;;;;;;474187;251;1262;-53
2022/10/24 11:50:40;;;;;;;;;;;23.20;44.20;;;;;;474332;251;1317;-53
2022/10/24 11:52:42;;;;;;;;;;;23.20;44.10;;;;;;474447;251;1288;-53
2022/10/24 11:54:43;;;;;;;;;;;23.10;44.10;;;;;;474271;251;1417;-53
2022/10/24 11:56:45;;;;;;;;;;;23.20;44.20;;;;;;474243;251;1351;-53